Petersburg, ND (58272)

1:18 PM CDT on July 23, 2016 (GMT -0500)
Larimore | | Change Station

Elev 1125 ft 47.91 °N, 97.63 °W | Updated 1 minute ago

Light Thunderstorms and Rain
Light Thunderstorm Rain Mist
64.9 °F
Feels Like 64.9 °F
N
4.2
Wind Variable Wind from South

Today
High -- | Low -- °F
--% Chance of Precip.
Yesterday
High -- | Low -- °F
Precip. -- in
Pressure 29.72 in
Visibility 5.0 miles
Clouds Mostly Cloudy 1100 ft
Dew Point 63 °F
Humidity 94%
Rainfall 0.66 in
Snow Depth Not available.
5:57 AM 9:18 PM
Waning Gibbous, 83% visible
SPECI KRDR 231813Z AUTO 09017G24KT 5SM -TSRA BR BKN011 18/18 A2972 RMK AO2 LTG DSNT N-NE AND SE-S TSE04TSB08 CIG 011V015
Pressure 29.72 in
Visibility 5.0 miles
Clouds Mostly Cloudy 1100 ft
Dew Point 63 °F
Humidity 94%
Rainfall 0.66 in
Snow Depth Not available.
5:57 AM 9:18 PM
Waning Gibbous, 83% visible
SPECI KRDR 231813Z AUTO 09017G24KT 5SM -TSRA BR BKN011 18/18 A2972 RMK AO2 LTG DSNT N-NE AND SE-S TSE04TSB08 CIG 011V015

10-Day Weather Forecast

Almanac

Astronomy

Jul. 23, 2016 Rise Set
Actual Time
Civil Twilight
Nautical Twilight
Astronomical Twilight
Moon
Length of Visible Light
Length of Day
Tomorrow will be .
, % of the Moon is Illuminated

Today's Extremes

State Highs State Lows

Community

WunderPhotos

Upload Photos

1,926,881 photos uploaded!

WunderBlog® & News

Nearby

Air Quality

  Air Quality AQ Index Pollutant
Not available.

Snow Depth

Station Depth Elevation

Earthquake Activity

City Distance Mag. Time & Date
Minimum magnitude displayed is 2.5.

Coastal Water Temperatures

Place Temperature

Stations

Nearby Weather Stations

Station Location Temp. Windchill Dew Point Humidity Wind Precip. Elev Updated Type
                   

Watches & Warnings

There are currently no watches in effect.